createdAt,value
2022-12-24T00:01:06.993Z,2.88
2022-12-24T00:03:35.515Z,2.40
2022-12-24T00:06:07.913Z,3.33
2022-12-24T00:08:35.583Z,3.30
2022-12-24T00:11:03.342Z,4.18
2022-12-24T00:13:30.811Z,4.43
2022-12-24T00:15:58.015Z,3.00
2022-12-24T00:18:25.562Z,5.05
2022-12-24T00:20:52.824Z,3.20
2022-12-24T00:23:20.818Z,4.35
2022-12-24T00:25:48.442Z,3.22
2022-12-24T00:28:16.609Z,3.33
2022-12-24T00:30:44.506Z,5.45
2022-12-24T00:33:11.887Z,3.33
2022-12-24T00:35:40.496Z,2.53
2022-12-24T00:38:08.510Z,4.32
2022-12-24T00:40:36.279Z,3.53
2022-12-24T00:43:03.838Z,4.10
2022-12-24T00:45:31.016Z,3.72
2022-12-24T00:47:58.196Z,3.53
2022-12-24T00:50:25.505Z,2.20
2022-12-24T00:52:52.763Z,3.65
2022-12-24T00:55:20.409Z,2.78
2022-12-24T00:57:47.733Z,4.93
2022-12-24T01:00:17.583Z,4.38
2022-12-24T01:02:45.223Z,4.53
2022-12-24T01:05:12.755Z,3.35
2022-12-24T01:07:44.924Z,3.75
2022-12-24T01:10:15.440Z,3.83
2022-12-24T01:12:43.027Z,4.47
2022-12-24T01:15:11.528Z,3.60
2022-12-24T01:17:39.135Z,3.20
2022-12-24T01:20:08.589Z,2.58
2022-12-24T01:22:36.248Z,3.90
2022-12-24T01:25:03.590Z,3.22
2022-12-24T01:27:31.022Z,2.40
2022-12-24T01:29:58.223Z,2.70
2022-12-24T01:32:25.459Z,4.18
2022-12-24T01:34:52.721Z,2.38
2022-12-24T01:37:19.918Z,2.70
2022-12-24T01:39:47.364Z,2.47
2022-12-24T01:42:39.314Z,2.17
2022-12-24T01:45:44.802Z,2.42
2022-12-24T01:48:23.545Z,2.60
2022-12-24T01:51:12.339Z,3.03
2022-12-24T01:53:42.245Z,4.30
2022-12-24T01:56:11.866Z,2.20
2022-12-24T01:58:41.215Z,3.25
2022-12-24T02:01:08.700Z,1.92
2022-12-24T02:03:36.177Z,3.17
2022-12-24T02:06:04.587Z,2.58
2022-12-24T02:08:42.594Z,2.70
2022-12-24T02:11:15.814Z,2.90
2022-12-24T02:13:46.393Z,3.67
2022-12-24T02:16:28.217Z,2.75
2022-12-24T02:19:33.996Z,3.35
2022-12-24T02:22:36.255Z,4.50
2022-12-24T02:25:03.380Z,3.55
2022-12-24T02:27:38.574Z,3.10
2022-12-24T02:30:10.255Z,2.50
2022-12-24T02:32:53.898Z,2.67
2022-12-24T02:35:53.060Z,3.75
2022-12-24T02:38:46.473Z,4.63
2022-12-24T02:41:54.801Z,3.13
2022-12-24T02:44:26.080Z,4.78
2022-12-24T02:46:53.724Z,3.38
2022-12-24T02:49:20.942Z,4.13
2022-12-24T02:51:48.149Z,2.67
2022-12-24T02:54:15.801Z,3.15
2022-12-24T02:57:08.295Z,2.78
2022-12-24T02:59:46.274Z,4.70
2022-12-24T03:02:24.591Z,3.05
2022-12-24T03:05:03.243Z,3.00
2022-12-24T03:07:41.251Z,2.75
2022-12-24T03:10:11.134Z,4.47
2022-12-24T03:13:15.122Z,3.80
2022-12-24T03:15:43.469Z,4.20
2022-12-24T03:18:13.092Z,4.47
2022-12-24T03:20:53.040Z,5.20
2022-12-24T03:23:20.476Z,4.35
2022-12-24T03:25:47.713Z,4.88
2022-12-24T03:28:17.569Z,3.58
2022-12-24T03:30:46.864Z,3.25
2022-12-24T03:33:14.936Z,3.28
2022-12-24T03:35:42.145Z,3.38
2022-12-24T03:38:09.343Z,3.65
2022-12-24T03:40:36.615Z,3.55
2022-12-24T03:43:03.887Z,2.83
2022-12-24T03:45:31.114Z,3.42
2022-12-24T03:47:58.320Z,4.18
2022-12-24T03:50:25.525Z,3.95
2022-12-24T03:52:52.744Z,4.05
2022-12-24T03:55:20.029Z,2.92
2022-12-24T03:57:47.201Z,4.15
2022-12-24T04:00:14.946Z,4.03
2022-12-24T04:02:42.506Z,2.58
2022-12-24T04:05:14.913Z,3.42
2022-12-24T04:07:42.085Z,3.15
2022-12-24T04:10:10.154Z,2.83
2022-12-24T04:12:38.264Z,2.63
2022-12-24T04:15:06.162Z,2.65
2022-12-24T04:17:33.625Z,3.97
2022-12-24T04:20:00.882Z,3.20
2022-12-24T04:22:28.066Z,3.22
2022-12-24T04:24:55.265Z,3.03
2022-12-24T04:27:28.266Z,4.30
2022-12-24T04:29:57.603Z,2.63
2022-12-24T04:32:26.724Z,4.63
2022-12-24T04:34:54.014Z,2.95
2022-12-24T04:37:21.436Z,3.40
2022-12-24T04:39:48.650Z,3.78
2022-12-24T04:42:16.039Z,2.13
2022-12-24T04:44:43.254Z,3.42
2022-12-24T04:47:10.961Z,3.33
2022-12-24T04:49:38.144Z,4.10
2022-12-24T04:52:05.669Z,2.95
2022-12-24T04:54:32.986Z,2.83
2022-12-24T04:57:00.242Z,2.95
2022-12-24T04:59:27.402Z,3.97
2022-12-24T05:01:54.736Z,3.22
2022-12-24T05:04:22.093Z,3.03
2022-12-24T05:06:49.370Z,2.38
2022-12-24T05:09:16.642Z,2.50
2022-12-24T05:11:44.012Z,2.05
2022-12-24T05:14:11.257Z,1.92
2022-12-24T05:16:38.865Z,2.97
2022-12-24T05:19:06.185Z,2.45
2022-12-24T05:21:33.587Z,2.97
2022-12-24T05:24:19.554Z,3.28
2022-12-24T05:26:51.096Z,2.17
2022-12-24T05:29:18.222Z,1.90
2022-12-24T05:31:45.901Z,3.70
2022-12-24T05:34:15.253Z,2.90
2022-12-24T05:36:43.050Z,2.47
2022-12-24T05:39:17.487Z,2.00
2022-12-24T05:41:46.602Z,2.38
2022-12-24T05:44:15.069Z,2.60
2022-12-24T05:46:43.379Z,1.67
2022-12-24T05:49:10.822Z,2.17
2022-12-24T05:51:40.456Z,2.78
2022-12-24T05:54:08.085Z,2.40
2022-12-24T05:56:35.396Z,2.20
2022-12-24T05:59:02.671Z,3.05
2022-12-24T06:01:30.013Z,1.80
2022-12-24T06:03:58.125Z,2.40
2022-12-24T06:06:27.557Z,2.95
2022-12-24T06:08:55.691Z,3.13
2022-12-24T06:11:25.570Z,2.08
2022-12-24T06:13:53.962Z,1.95
2022-12-24T06:16:22.169Z,1.50
2022-12-24T06:18:49.595Z,2.80
2022-12-24T06:21:17.061Z,1.83
2022-12-24T06:23:45.421Z,2.92
2022-12-24T06:26:15.351Z,2.40
2022-12-24T06:28:43.425Z,3.35
2022-12-24T06:31:13.668Z,2.10
2022-12-24T06:33:41.255Z,2.63
2022-12-24T06:36:16.638Z,2.75
2022-12-24T06:38:45.234Z,1.75
2022-12-24T06:41:12.434Z,2.15
2022-12-24T06:43:40.305Z,2.28
2022-12-24T06:46:08.268Z,1.98
2022-12-24T06:48:35.497Z,1.80
2022-12-24T06:51:03.790Z,3.42
2022-12-24T06:53:32.053Z,2.45
2022-12-24T06:56:10.297Z,2.40
2022-12-24T06:58:37.640Z,3.10
2022-12-24T07:01:08.164Z,2.15
2022-12-24T07:03:35.744Z,1.40
2022-12-24T07:06:03.170Z,2.05
2022-12-24T07:08:33.716Z,2.65
2022-12-24T07:11:01.207Z,2.45
2022-12-24T07:13:29.285Z,1.83
2022-12-24T07:16:01.228Z,1.65
2022-12-24T07:18:29.041Z,1.77
2022-12-24T07:20:56.263Z,2.03
2022-12-24T07:23:23.685Z,1.80
2022-12-24T07:25:51.046Z,1.67
2022-12-24T07:28:23.908Z,1.60
2022-12-24T07:30:55.434Z,2.47
2022-12-24T07:33:23.031Z,2.83
2022-12-24T07:35:57.332Z,2.53
2022-12-24T07:38:24.500Z,2.03
2022-12-24T07:40:51.734Z,2.70
2022-12-24T07:43:18.978Z,1.70
2022-12-24T07:45:46.291Z,2.85
2022-12-24T07:48:13.792Z,1.90
2022-12-24T07:50:40.991Z,1.88
2022-12-24T07:53:08.213Z,2.05
2022-12-24T07:55:36.760Z,1.80
2022-12-24T07:58:04.186Z,1.70
2022-12-24T08:00:31.452Z,1.88
2022-12-24T08:03:00.301Z,1.48
2022-12-24T08:05:28.328Z,2.72
2022-12-24T08:07:55.616Z,1.10
2022-12-24T08:10:22.859Z,1.80
2022-12-24T08:12:50.292Z,1.63
2022-12-24T08:15:17.677Z,1.45
2022-12-24T08:17:45.308Z,1.65
2022-12-24T08:20:12.575Z,1.27
2022-12-24T08:22:39.808Z,0.75
2022-12-24T08:25:07.705Z,1.48
2022-12-24T08:27:35.053Z,1.00
2022-12-24T08:30:02.968Z,0.98
2022-12-24T08:32:30.146Z,1.02
2022-12-24T08:34:57.467Z,1.80
2022-12-24T08:37:24.671Z,0.95
2022-12-24T08:39:51.871Z,1.70
2022-12-24T08:42:19.406Z,1.63
2022-12-24T08:44:46.741Z,1.23
2022-12-24T08:47:14.045Z,0.80
2022-12-24T08:49:41.664Z,0.88
2022-12-24T08:52:08.877Z,1.20
2022-12-24T08:54:36.092Z,0.85
2022-12-24T08:57:03.434Z,1.35
2022-12-24T08:59:30.823Z,1.40
2022-12-24T09:01:58.145Z,1.00
2022-12-24T09:04:25.603Z,1.25
2022-12-24T09:06:52.849Z,0.90
2022-12-24T09:09:20.073Z,1.00
2022-12-24T09:11:48.015Z,1.75
2022-12-24T09:14:15.205Z,1.60
2022-12-24T09:16:42.460Z,1.05
2022-12-24T09:19:09.682Z,0.88
2022-12-24T09:21:36.960Z,1.00
2022-12-24T09:24:05.117Z,0.95
2022-12-24T09:26:32.749Z,2.15
2022-12-24T09:29:00.910Z,1.20
2022-12-24T09:31:28.921Z,1.48
2022-12-24T09:33:56.259Z,0.98
2022-12-24T09:36:23.490Z,1.33
2022-12-24T09:38:50.947Z,1.95
2022-12-24T09:41:52.253Z,1.08
2022-12-24T09:44:47.393Z,1.30
2022-12-24T09:49:59.495Z,1.90
2022-12-24T09:52:39.109Z,1.17
2022-12-24T09:55:12.509Z,1.50
2022-12-24T09:57:41.931Z,1.17
2022-12-24T10:00:23.582Z,2.30
2022-12-24T10:02:51.090Z,1.08
2022-12-24T10:05:29.791Z,1.20
2022-12-24T10:08:12.831Z,1.38
2022-12-24T10:10:46.861Z,1.73
2022-12-24T10:13:33.489Z,1.25
2022-12-24T10:16:06.259Z,1.00
2022-12-24T10:18:59.025Z,1.30
2022-12-24T10:21:33.652Z,1.48
2022-12-24T10:26:45.638Z,1.73
2022-12-24T10:29:20.974Z,1.08
2022-12-24T10:31:57.069Z,2.38
2022-12-24T10:34:28.496Z,1.70
2022-12-24T10:36:57.047Z,1.48
2022-12-24T10:39:26.819Z,1.33
2022-12-24T10:41:57.953Z,1.70
2022-12-24T10:44:28.731Z,1.13
2022-12-24T10:46:56.176Z,1.38
2022-12-24T10:49:37.934Z,1.58
2022-12-24T10:52:35.632Z,1.38
2022-12-24T10:55:18.316Z,1.48
2022-12-24T10:58:01.578Z,1.33
2022-12-24T11:00:35.550Z,2.28
2022-12-24T11:03:28.751Z,1.73
2022-12-24T11:06:18.489Z,1.25
2022-12-24T11:08:45.955Z,1.20
2022-12-24T11:11:16.809Z,1.98
2022-12-24T11:13:56.953Z,1.58
2022-12-24T11:16:35.722Z,1.60
2022-12-24T11:19:06.695Z,1.48
2022-12-24T11:21:37.912Z,1.73
2022-12-24T11:24:25.205Z,2.00
2022-12-24T11:26:52.578Z,1.38
2022-12-24T11:29:21.619Z,1.45
2022-12-24T11:31:49.933Z,1.92
2022-12-24T11:34:33.157Z,1.75
2022-12-24T11:37:31.547Z,1.35
2022-12-24T11:40:02.081Z,2.60
2022-12-24T11:42:38.720Z,2.60
2022-12-24T11:45:17.960Z,1.60
2022-12-24T11:47:46.337Z,2.17
2022-12-24T11:50:35.480Z,2.72
2022-12-24T11:53:20.608Z,1.92
2022-12-24T11:55:57.220Z,3.47
2022-12-24T11:58:45.060Z,2.40
2022-12-24T12:01:24.143Z,2.05
2022-12-24T12:04:02.471Z,1.90
2022-12-24T12:07:12.699Z,2.45
2022-12-24T12:09:46.035Z,3.00
2022-12-24T12:12:22.534Z,1.83
2022-12-24T12:14:51.846Z,3.38
2022-12-24T12:17:36.453Z,2.55
2022-12-24T12:20:26.169Z,4.75
2022-12-24T12:23:24.536Z,3.33
2022-12-24T12:26:04.661Z,3.30
2022-12-24T12:28:50.611Z,3.50
2022-12-24T12:31:32.159Z,2.67
2022-12-24T12:34:28.113Z,2.10
2022-12-24T12:37:00.724Z,1.70
2022-12-24T12:39:28.171Z,2.55
2022-12-24T12:42:00.546Z,2.33
2022-12-24T12:45:04.668Z,3.25
2022-12-24T12:47:43.316Z,2.53
2022-12-24T12:50:10.557Z,2.20
2022-12-24T12:52:59.078Z,2.55
2022-12-24T12:55:40.933Z,2.53
2022-12-24T12:58:32.319Z,2.92
2022-12-24T13:01:27.233Z,2.72
2022-12-24T13:04:17.521Z,2.17
2022-12-24T13:06:52.838Z,2.10
2022-12-24T13:09:35.259Z,3.25
2022-12-24T13:12:35.736Z,2.28
2022-12-24T13:15:14.840Z,2.25
2022-12-24T13:17:54.941Z,3.15
2022-12-24T13:20:31.636Z,2.60
2022-12-24T13:23:11.560Z,3.25
2022-12-24T13:25:45.205Z,1.70
2022-12-24T13:28:24.042Z,2.35
2022-12-24T13:31:13.578Z,2.58
2022-12-24T13:33:40.728Z,2.88
2022-12-24T13:36:19.280Z,1.92
2022-12-24T13:38:57.336Z,3.78
2022-12-24T13:41:40.635Z,3.20
2022-12-24T13:44:13.190Z,3.10
2022-12-24T13:46:58.861Z,2.17
2022-12-24T13:49:32.077Z,3.15
2022-12-24T13:52:11.656Z,2.33
2022-12-24T13:54:42.804Z,3.30
2022-12-24T13:57:36.160Z,3.53
2022-12-24T14:00:08.845Z,2.88
2022-12-24T14:02:57.657Z,2.97
2022-12-24T14:05:38.670Z,2.90
2022-12-24T14:08:11.324Z,2.15
2022-12-24T14:10:57.502Z,2.35
2022-12-24T14:14:03.480Z,1.92
2022-12-24T14:16:41.595Z,1.80
2022-12-24T14:19:25.335Z,2.35
2022-12-24T14:22:22.590Z,2.00
2022-12-24T14:25:17.943Z,2.25
2022-12-24T14:27:51.349Z,2.55
2022-12-24T14:30:25.784Z,2.63
2022-12-24T14:32:54.171Z,4.00
2022-12-24T14:35:27.967Z,2.10
2022-12-24T14:38:01.982Z,2.72
2022-12-24T14:40:35.020Z,2.42
2022-12-24T14:43:39.972Z,2.35
2022-12-24T14:46:14.949Z,4.30
2022-12-24T14:48:56.446Z,2.67
2022-12-24T14:52:02.015Z,2.92
2022-12-24T14:54:41.006Z,2.95
2022-12-24T14:57:11.147Z,3.53
2022-12-24T14:59:52.845Z,3.67
2022-12-24T15:02:26.012Z,3.33
2022-12-24T15:05:12.990Z,2.70
2022-12-24T15:08:04.318Z,2.58
2022-12-24T15:10:35.503Z,2.22
2022-12-24T15:13:09.867Z,2.47
2022-12-24T15:15:37.254Z,2.10
2022-12-24T15:18:05.119Z,2.03
2022-12-24T15:20:32.660Z,3.67
2022-12-24T15:22:59.962Z,3.50
2022-12-24T15:25:32.871Z,3.58
2022-12-24T15:28:00.223Z,3.25
2022-12-24T15:30:29.822Z,3.22
2022-12-24T15:32:58.192Z,4.60
2022-12-24T15:35:46.923Z,3.03
2022-12-24T15:38:34.403Z,3.20
2022-12-24T15:41:05.024Z,4.93
2022-12-24T15:43:33.001Z,3.30
2022-12-24T15:46:01.083Z,2.28
2022-12-24T15:48:30.513Z,2.72
2022-12-24T15:51:01.352Z,2.15
2022-12-24T15:53:44.823Z,3.33
2022-12-24T15:56:30.174Z,3.47
2022-12-24T15:59:17.922Z,3.00
2022-12-24T16:01:47.070Z,2.90
2022-12-24T16:04:23.637Z,2.95
2022-12-24T16:07:08.200Z,2.45
2022-12-24T16:09:46.299Z,3.80
2022-12-24T16:12:22.788Z,3.13
2022-12-24T16:14:57.709Z,2.53
2022-12-24T16:17:28.292Z,2.03
2022-12-24T16:19:59.049Z,4.03
2022-12-24T16:22:32.514Z,2.35
2022-12-24T16:25:01.233Z,2.40
2022-12-24T16:27:28.469Z,2.45
2022-12-24T16:29:55.680Z,2.45
2022-12-24T16:32:35.212Z,2.00
2022-12-24T16:35:08.206Z,2.75
2022-12-24T16:37:35.716Z,2.45
2022-12-24T16:40:02.906Z,1.85
2022-12-24T16:42:48.495Z,2.13
2022-12-24T16:45:15.750Z,2.60
2022-12-24T16:47:43.855Z,2.50
2022-12-24T16:50:16.135Z,1.85
2022-12-24T16:52:43.640Z,1.95
2022-12-24T16:55:14.182Z,3.40
2022-12-24T16:57:42.670Z,2.53
2022-12-24T17:00:18.300Z,2.53
2022-12-24T17:02:46.032Z,1.92
2022-12-24T17:05:13.630Z,4.07
2022-12-24T17:07:43.714Z,3.38
2022-12-24T17:10:14.123Z,4.53
2022-12-24T17:12:42.254Z,4.63
2022-12-24T17:15:10.201Z,3.35
2022-12-24T17:17:37.478Z,5.38
2022-12-24T17:20:05.465Z,2.90
2022-12-24T17:22:32.774Z,3.72
2022-12-24T17:24:59.978Z,5.30
2022-12-24T17:27:27.312Z,5.15
2022-12-24T17:29:54.676Z,4.70
2022-12-24T17:32:22.016Z,4.97
2022-12-24T17:34:49.225Z,5.25
2022-12-24T17:37:16.486Z,4.63
2022-12-24T17:39:43.720Z,4.88
2022-12-24T17:42:11.345Z,4.88
2022-12-24T17:44:38.591Z,3.25
2022-12-24T17:47:05.940Z,3.80
2022-12-24T17:49:33.589Z,2.78
2022-12-24T17:52:00.908Z,3.20
2022-12-24T17:54:28.156Z,2.90
2022-12-24T17:56:55.335Z,2.85
2022-12-24T17:59:23.186Z,2.97
2022-12-24T18:01:50.494Z,2.95
2022-12-24T18:04:17.911Z,4.30
2022-12-24T18:06:49.293Z,2.90
2022-12-24T18:09:17.087Z,3.75
2022-12-24T18:11:44.580Z,4.05
2022-12-24T18:14:14.412Z,3.65
2022-12-24T18:16:42.768Z,2.92
2022-12-24T18:19:11.970Z,2.95
2022-12-24T18:21:39.749Z,2.75
2022-12-24T18:24:07.290Z,4.30
2022-12-24T18:26:34.749Z,2.70
2022-12-24T18:29:05.952Z,1.73
2022-12-24T18:31:34.175Z,2.08
2022-12-24T18:34:03.297Z,3.55
2022-12-24T18:36:31.094Z,3.30
2022-12-24T18:38:58.361Z,2.03
2022-12-24T18:41:30.362Z,2.78
2022-12-24T18:43:58.661Z,2.95
2022-12-24T18:46:28.613Z,3.35
2022-12-24T18:48:57.525Z,1.48
2022-12-24T18:51:27.665Z,2.85
2022-12-24T18:53:56.435Z,1.88
2022-12-24T18:56:26.008Z,1.50
2022-12-24T18:58:59.970Z,3.15
2022-12-24T19:01:30.210Z,2.13
2022-12-24T19:03:58.074Z,1.85
2022-12-24T19:06:25.977Z,2.20
2022-12-24T19:09:01.773Z,4.13
2022-12-24T19:11:31.672Z,4.75
2022-12-24T19:13:59.428Z,5.40
2022-12-24T19:16:27.819Z,3.25
2022-12-24T19:18:55.259Z,5.43
2022-12-24T19:21:22.720Z,3.85
2022-12-24T19:23:50.062Z,5.03
2022-12-24T19:26:18.626Z,4.93
2022-12-24T19:28:46.543Z,3.53
2022-12-24T19:31:17.573Z,5.55
2022-12-24T19:33:48.182Z,3.53
2022-12-24T19:36:21.284Z,6.72
2022-12-24T19:38:48.731Z,4.13
2022-12-24T19:41:18.729Z,5.18
2022-12-24T19:43:48.291Z,3.75
2022-12-24T19:46:18.081Z,3.90
2022-12-24T19:48:50.418Z,3.88
2022-12-24T19:51:18.480Z,8.13
2022-12-24T19:53:46.024Z,4.32
2022-12-24T19:56:18.204Z,3.47
2022-12-24T19:58:46.927Z,2.13
2022-12-24T20:01:25.672Z,3.17
2022-12-24T20:03:53.829Z,6.95
2022-12-24T20:06:24.906Z,6.80
2022-12-24T20:08:52.155Z,8.70
2022-12-24T20:11:22.383Z,6.05
2022-12-24T20:13:49.628Z,9.98
2022-12-24T20:16:19.840Z,6.00
2022-12-24T20:19:01.704Z,6.22
2022-12-24T20:21:29.386Z,6.35
2022-12-24T20:23:56.612Z,2.90
2022-12-24T20:26:26.353Z,2.45
2022-12-24T20:28:54.063Z,2.95
2022-12-24T20:31:26.715Z,2.08
2022-12-24T20:33:54.449Z,1.60
2022-12-24T20:36:23.670Z,1.60
2022-12-24T20:38:51.478Z,1.90
2022-12-24T20:41:20.788Z,1.10
2022-12-24T20:43:49.202Z,2.38
2022-12-24T20:46:18.229Z,1.33
2022-12-24T20:48:46.163Z,1.55
2022-12-24T20:51:24.390Z,1.40
2022-12-24T20:53:53.676Z,1.67
2022-12-24T20:56:21.583Z,0.80
2022-12-24T20:58:48.906Z,1.05
2022-12-24T21:01:19.061Z,1.27
2022-12-24T21:03:46.615Z,0.88
2022-12-24T21:06:15.715Z,1.10
2022-12-24T21:08:43.015Z,1.20
2022-12-24T21:11:28.715Z,1.70
2022-12-24T21:13:57.195Z,1.92
2022-12-24T21:16:24.574Z,1.90
2022-12-24T21:18:51.889Z,1.45
2022-12-24T21:21:19.150Z,1.20
2022-12-24T21:23:46.421Z,1.35
2022-12-24T21:26:13.740Z,1.27
2022-12-24T21:28:42.726Z,1.42
2022-12-24T21:31:11.539Z,0.88
2022-12-24T21:33:38.799Z,1.73
2022-12-24T21:36:06.926Z,1.40
2022-12-24T21:38:35.199Z,2.72
2022-12-24T21:41:13.935Z,1.88
2022-12-24T21:43:41.753Z,4.05
2022-12-24T21:46:10.768Z,4.43
2022-12-24T21:48:57.553Z,5.80
2022-12-24T21:51:26.595Z,2.50
2022-12-24T21:54:12.920Z,1.90
2022-12-24T21:56:59.316Z,6.22
2022-12-24T21:59:27.525Z,3.95
2022-12-24T22:01:56.131Z,2.10
2022-12-24T22:04:23.996Z,2.53
2022-12-24T22:07:10.211Z,1.98
2022-12-24T22:09:57.959Z,1.85
2022-12-24T22:12:28.770Z,1.45
2022-12-24T22:14:56.006Z,1.85
2022-12-24T22:17:25.698Z,5.13
2022-12-24T22:19:54.412Z,3.33
2022-12-24T22:22:22.101Z,2.83
2022-12-24T22:24:49.395Z,2.25
2022-12-24T22:27:16.633Z,1.90
2022-12-24T22:29:43.852Z,2.08
2022-12-24T22:32:11.110Z,2.38
2022-12-24T22:34:38.381Z,1.40
2022-12-24T22:37:05.605Z,1.23
2022-12-24T22:39:32.929Z,1.63
2022-12-24T22:42:00.122Z,2.92
2022-12-24T22:44:27.573Z,2.22
2022-12-24T22:46:54.763Z,1.45
2022-12-24T22:49:21.972Z,1.27
2022-12-24T22:51:49.298Z,1.10
2022-12-24T22:54:16.561Z,1.48
2022-12-24T22:56:43.926Z,1.65
2022-12-24T22:59:14.225Z,0.93
2022-12-24T23:01:46.129Z,1.55
2022-12-24T23:04:14.997Z,0.90
2022-12-24T23:06:43.556Z,0.80
2022-12-24T23:09:13.697Z,1.10
2022-12-24T23:11:40.967Z,0.70
2022-12-24T23:14:32.401Z,0.63
2022-12-24T23:16:59.681Z,1.02
2022-12-24T23:19:26.996Z,1.45
2022-12-24T23:21:54.469Z,0.90
2022-12-24T23:24:21.622Z,1.33
2022-12-24T23:26:49.171Z,0.75
2022-12-24T23:29:16.549Z,0.80
2022-12-24T23:31:43.841Z,0.70
2022-12-24T23:34:11.284Z,0.60
2022-12-24T23:36:38.507Z,0.80
2022-12-24T23:39:05.772Z,0.70
2022-12-24T23:41:33.100Z,0.90
2022-12-24T23:44:00.359Z,6.53
2022-12-24T23:46:28.044Z,3.05
2022-12-24T23:48:56.017Z,1.98
2022-12-24T23:51:26.079Z,1.30
2022-12-24T23:53:57.232Z,1.10
2022-12-24T23:56:25.778Z,1.17
2022-12-24T23:58:53.369Z,0.82
